Shadyside, Ohio
Current Conditions -  °F | °C
As of 5:25 PM on Tuesday 21 Oct 2014 (Local Time) from KHLG Reporting Station
Overcast Overcast  
Wind Chill: 44°   Ceiling: 3300
Heat Index: 49°   Visibility: 10mi
Dew Point: 44°   Wind: 13mph
Humidity: 83%   Direction: 310°NW
Pressure: 29.96"   Gusts: NA
Location:  39.97°N, 80.75°W
Report Text: KHLG 212125Z 31011KT 10SM FEW019 FEW025 OVC033 09/07 A2996 RMK AO2 P0001 T00940067
Loading
Personal Weather Stations






























Interactive Weather Map
Tropical Storm Tracking
New forecast layout! Learn more

10-Day Weather Forecast

Advertisements
Track Severe Weather on mobile